To NAV CANADA Home Page Login to a new session Search on AWWS site Feedback and Comments Disclaimer Vers la page française équivalente Tips FAQ What's new on the site To the Forecasts and Observations / NOTAM section To "File a Flight Plan" website Publications and other links Update of the User's profile FIC Telephone Numbers My Weather Data Folder Route Weather Data Regional Weather Data Local Weather Data To the Forecasts and Observations / NOTAM section
Request Generated 04/30/2016 at 20:45:17 UTC . Weather information available at that time is displayed.

METAR/TAF

NATASHQUAN/QC    (show WxCam)

METAR CYNA 302000Z AUTO 27010G16KT 9SM CLR 06/M01 A3013 RMK SLP206=
METAR CYNA 301900Z AUTO 27016G22KT 9SM CLR 06/M01 A3013 RMK SLP205=
METAR CYNA 301800Z AUTO 27016G22KT 9SM CLR 06/M01 A3012 RMK SLP203=

TAF CYNA 301938Z 3020/0108 27012G22KT P6SM SKC
BECMG 3023/0101 VRB03KT
FM010200 04006KT P6SM SCT040 BKN200
RMK FCST BASED ON AUTO OBS. NXT FCST BY 010200Z=
Your time UTC time
Weather data provided by Environment Canada and NAV CANADA